Time,TemperatureF,DewpointF,PressureIn,WindDirection,WindDirectionDegrees,WindSpeedMPH,WindSpeedGustMPH,Humidity,HourlyPrecipIn,Conditions,Clouds,dailyrainin,SoftwareType,DateUTC
2013-05-29 00:01:00,61.9,61.5,28.95,SSW,202,1.0,4.0,98,0.00,,,0.00,Rainwise IP-100,2013-05-29 04:01:00,
2013-05-29 00:02:00,61.9,61.5,28.95,South,180,2.0,4.0,98,0.00,,,0.00,Rainwise IP-100,2013-05-29 04:02:00,
2013-05-29 00:03:00,62.0,61.5,28.95,South,180,2.0,4.0,98,0.00,,,0.00,Rainwise IP-100,2013-05-29 04:03:00,
2013-05-29 00:05:00,61.9,61.5,28.95,South,180,2.0,4.0,98,0.00,,,0.00,Rainwise IP-100,2013-05-29 04:05:00,
2013-05-29 00:10:00,61.9,61.5,28.95,South,180,2.0,4.0,98,0.00,,,0.00,Rainwise IP-100,2013-05-29 04:10:00,
2013-05-29 00:15:00,62.1,61.5,28.96,South,180,2.0,5.0,98,0.00,,,0.00,Rainwise IP-100,2013-05-29 04:15:00,
2013-05-29 00:20:00,62.1,61.5,28.96,South,180,3.0,4.0,98,0.00,,,0.00,Rainwise IP-100,2013-05-29 04:20:00,
2013-05-29 00:25:00,62.3,62.0,28.95,South,180,1.0,3.0,98,0.00,,,0.00,Rainwise IP-100,2013-05-29 04:25:00,
2013-05-29 00:30:00,62.2,61.5,28.95,South,180,2.0,2.0,98,0.00,,,0.00,Rainwise IP-100,2013-05-29 04:30:00,
2013-05-29 00:35:00,62.1,61.5,28.95,South,180,1.0,2.0,98,0.00,,,0.00,Rainwise IP-100,2013-05-29 04:35:00,
2013-05-29 00:40:00,62.1,61.5,28.95,South,180,1.0,4.0,98,0.00,,,0.00,Rainwise IP-100,2013-05-29 04:40:00,
2013-05-29 00:45:00,62.2,61.5,28.94,South,180,1.0,2.0,98,0.00,,,0.00,Rainwise IP-100,2013-05-29 04:45:00,
2013-05-29 00:50:00,62.2,61.5,28.94,South,180,2.0,2.0,98,0.00,,,0.00,Rainwise IP-100,2013-05-29 04:50:00,
2013-05-29 00:55:00,62.2,61.5,28.95,South,180,1.0,4.0,98,0.00,,,0.00,Rainwise IP-100,2013-05-29 04:55:00,
2013-05-29 01:01:00,62.3,62.0,28.95,South,180,2.0,3.0,98,0.00,,,0.00,Rainwise IP-100,2013-05-29 05:01:00,
2013-05-29 01:06:00,62.3,62.0,28.95,South,180,2.0,3.0,98,0.00,,,0.00,Rainwise IP-100,2013-05-29 05:06:00,
2013-05-29 01:11:00,62.5,62.0,28.95,SSE,157,2.0,4.0,98,0.00,,,0.00,Rainwise IP-100,2013-05-29 05:11:00,
2013-05-29 01:16:00,62.6,62.0,28.95,South,180,4.0,4.0,98,0.00,,,0.00,Rainwise IP-100,2013-05-29 05:16:00,
2013-05-29 01:21:00,62.9,62.5,28.95,SSW,202,6.0,7.0,98,0.54,,,0.09,Rainwise IP-100,2013-05-29 05:21:00,
2013-05-29 01:26:00,63.4,63.0,28.95,SSW,202,6.0,8.0,98,0.60,,,0.10,Rainwise IP-100,2013-05-29 05:26:00,
2013-05-29 01:31:00,63.8,63.5,28.95,WSW,247,7.0,9.0,98,0.06,,,0.10,Rainwise IP-100,2013-05-29 05:31:00,
2013-05-29 01:36:00,63.9,63.5,28.95,SSW,202,3.0,11.0,98,0.00,,,0.10,Rainwise IP-100,2013-05-29 05:36:00,
2013-05-29 01:41:00,63.9,63.5,28.95,SW,225,2.0,13.0,98,0.06,,,0.11,Rainwise IP-100,2013-05-29 05:41:00,
2013-05-29 01:46:00,64.1,63.5,28.95,SSW,202,5.0,11.0,98,0.18,,,0.13,Rainwise IP-100,2013-05-29 05:46:00,
2013-05-29 01:51:00,64.2,63.5,28.96,WSW,247,7.0,9.0,98,0.24,,,0.15,Rainwise IP-100,2013-05-29 05:51:00,
2013-05-29 01:56:00,64.3,64.0,28.96,South,180,6.0,8.0,98,0.12,,,0.15,Rainwise IP-100,2013-05-29 05:56:00,
2013-05-29 02:02:00,64.1,63.5,28.95,South,180,7.0,11.0,98,0.00,,,0.15,Rainwise IP-100,2013-05-29 06:02:00,
2013-05-29 02:07:00,64.1,63.5,28.95,South,180,3.0,10.0,98,0.12,,,0.17,Rainwise IP-100,2013-05-29 06:07:00,
2013-05-29 02:12:00,64.0,63.5,28.94,South,180,6.0,8.0,98,0.18,,,0.18,Rainwise IP-100,2013-05-29 06:12:00,
2013-05-29 02:17:00,64.1,63.5,28.94,SSE,157,2.0,6.0,98,0.00,,,0.18,Rainwise IP-100,2013-05-29 06:17:00,
2013-05-29 02:22:00,64.1,63.5,28.93,South,180,3.0,5.0,98,0.00,,,0.18,Rainwise IP-100,2013-05-29 06:22:00,
2013-05-29 02:27:00,64.1,63.5,28.93,South,180,5.0,5.0,98,0.00,,,0.18,Rainwise IP-100,2013-05-29 06:27:00,
2013-05-29 02:32:00,64.0,63.5,28.93,South,180,4.0,6.0,98,0.00,,,0.18,Rainwise IP-100,2013-05-29 06:32:00,
2013-05-29 02:37:00,63.9,63.5,28.94,SSE,157,1.0,6.0,98,0.00,,,0.18,Rainwise IP-100,2013-05-29 06:37:00,
2013-05-29 02:42:00,63.9,63.5,28.93,South,180,5.0,7.0,98,0.00,,,0.18,Rainwise IP-100,2013-05-29 06:42:00,
2013-05-29 02:47:00,63.9,63.5,28.92,SSW,202,6.0,10.0,98,0.00,,,0.18,Rainwise IP-100,2013-05-29 06:47:00,
2013-05-29 02:52:00,64.1,63.5,28.92,South,180,10.0,12.0,98,0.00,,,0.18,Rainwise IP-100,2013-05-29 06:52:00,
2013-05-29 02:57:00,64.3,64.0,28.92,South,180,7.0,13.0,98,0.00,,,0.18,Rainwise IP-100,2013-05-29 06:57:00,
2013-05-29 03:03:00,64.4,64.0,28.92,South,180,4.0,11.0,98,0.00,,,0.18,Rainwise IP-100,2013-05-29 07:03:00,
2013-05-29 03:08:00,64.4,64.0,28.92,South,180,7.0,9.0,98,0.00,,,0.18,Rainwise IP-100,2013-05-29 07:08:00,
2013-05-29 03:13:00,64.6,64.0,28.92,SSW,202,4.0,11.0,98,0.00,,,0.18,Rainwise IP-100,2013-05-29 07:13:00,
2013-05-29 03:18:00,64.7,64.0,28.92,SW,225,7.0,12.0,98,0.00,,,0.18,Rainwise IP-100,2013-05-29 07:18:00,
2013-05-29 03:23:00,65.0,64.5,28.92,South,180,7.0,11.0,98,0.00,,,0.18,Rainwise IP-100,2013-05-29 07:23:00,
2013-05-29 03:28:00,65.9,65.5,28.94,NW,315,5.0,10.0,98,0.00,,,0.18,Rainwise IP-100,2013-05-29 07:28:00,
2013-05-29 03:33:00,65.4,65.0,28.95,North,360,2.0,7.0,98,0.00,,,0.18,Rainwise IP-100,2013-05-29 07:33:00,
2013-05-29 03:39:00,64.6,64.0,28.95,SSE,157,3.0,4.0,98,0.00,,,0.18,Rainwise IP-100,2013-05-29 07:39:00,
2013-05-29 03:44:00,64.2,63.5,28.94,SSW,202,0.0,6.0,98,0.00,,,0.18,Rainwise IP-100,2013-05-29 07:44:00,
2013-05-29 03:49:00,63.9,63.5,28.95,NNW,337,2.0,5.0,98,0.06,,,0.19,Rainwise IP-100,2013-05-29 07:49:00,
2013-05-29 03:54:00,63.9,63.5,28.95,NNE,22,0.0,4.0,98,0.06,,,0.19,Rainwise IP-100,2013-05-29 07:54:00,
2013-05-29 03:59:00,63.9,63.5,28.95,NNE,22,0.0,1.0,98,0.00,,,0.19,Rainwise IP-100,2013-05-29 07:59:00,
2013-05-29 04:05:00,63.9,63.5,28.95,NNE,22,0.0,2.0,98,0.00,,,0.19,Rainwise IP-100,2013-05-29 08:05:00,
2013-05-29 04:10:00,63.7,63.0,28.95,NNE,22,2.0,2.0,98,0.00,,,0.19,Rainwise IP-100,2013-05-29 08:10:00,
2013-05-29 04:15:00,63.6,63.0,28.95,North,360,2.0,2.0,98,0.00,,,0.19,Rainwise IP-100,2013-05-29 08:15:00,
2013-05-29 04:20:00,63.7,63.0,28.95,North,360,1.0,2.0,98,0.00,,,0.19,Rainwise IP-100,2013-05-29 08:20:00,
2013-05-29 04:25:00,63.7,63.0,28.95,NNE,22,1.0,2.0,98,0.00,,,0.19,Rainwise IP-100,2013-05-29 08:25:00,
2013-05-29 04:30:00,63.7,63.0,28.95,North,360,1.0,2.0,98,0.00,,,0.19,Rainwise IP-100,2013-05-29 08:30:00,
2013-05-29 04:35:00,63.7,63.0,28.96,NW,315,1.0,2.0,98,0.18,,,0.22,Rainwise IP-100,2013-05-29 08:35:00,
2013-05-29 04:40:00,63.7,63.0,28.96,NE,45,1.0,2.0,98,0.60,,,0.29,Rainwise IP-100,2013-05-29 08:40:00,
2013-05-29 04:45:00,63.7,63.0,28.97,NNE,22,2.0,4.0,98,0.48,,,0.30,Rainwise IP-100,2013-05-29 08:45:00,
2013-05-29 04:50:00,63.7,63.0,28.96,NNE,22,0.0,2.0,98,0.24,,,0.33,Rainwise IP-100,2013-05-29 08:50:00,
2013-05-29 04:55:00,63.7,63.0,28.97,NW,315,0.0,2.0,98,0.48,,,0.38,Rainwise IP-100,2013-05-29 08:55:00,
2013-05-29 05:00:00,63.7,63.0,28.96,NW,315,0.0,1.0,98,0.30,,,0.38,Rainwise IP-100,2013-05-29 09:00:00,
2013-05-29 05:06:00,63.6,63.0,28.97,NNE,22,0.0,2.0,98,0.00,,,0.38,Rainwise IP-100,2013-05-29 09:06:00,
2013-05-29 05:11:00,63.8,63.5,28.97,South,180,2.0,2.0,98,0.06,,,0.39,Rainwise IP-100,2013-05-29 09:11:00,
2013-05-29 05:16:00,63.9,63.5,28.98,West,270,2.0,4.0,98,0.12,,,0.41,Rainwise IP-100,2013-05-29 09:16:00,
2013-05-29 05:21:00,64.1,63.5,28.98,WNW,292,2.0,4.0,98,0.12,,,0.41,Rainwise IP-100,2013-05-29 09:21:00,
2013-05-29 05:26:00,64.2,63.5,28.99,WSW,247,2.0,2.0,98,0.00,,,0.41,Rainwise IP-100,2013-05-29 09:26:00,
2013-05-29 05:31:00,64.2,63.5,28.99,SW,225,2.0,3.0,98,0.18,,,0.44,Rainwise IP-100,2013-05-29 09:31:00,
2013-05-29 05:36:00,64.2,63.5,28.99,SW,225,0.0,2.0,98,0.30,,,0.46,Rainwise IP-100,2013-05-29 09:36:00,
2013-05-29 05:41:00,64.1,63.5,28.99,ESE,112,2.0,3.0,98,0.12,,,0.46,Rainwise IP-100,2013-05-29 09:41:00,
2013-05-29 05:46:00,63.9,63.5,28.97,South,180,1.0,3.0,98,0.12,,,0.48,Rainwise IP-100,2013-05-29 09:46:00,
2013-05-29 05:51:00,63.9,63.5,28.97,South,180,5.0,5.0,98,0.18,,,0.49,Rainwise IP-100,2013-05-29 09:51:00,
2013-05-29 05:56:00,63.9,63.5,28.97,South,180,1.0,6.0,98,0.12,,,0.50,Rainwise IP-100,2013-05-29 09:56:00,
2013-05-29 06:01:00,63.9,63.5,28.97,ENE,67,1.0,4.0,98,0.12,,,0.51,Rainwise IP-100,2013-05-29 10:01:00,
2013-05-29 06:07:00,64.0,63.5,28.97,ESE,112,2.0,2.0,98,0.06,,,0.51,Rainwise IP-100,2013-05-29 10:07:00,
2013-05-29 06:12:00,63.9,63.5,28.96,SSE,157,1.0,2.0,98,0.00,,,0.51,Rainwise IP-100,2013-05-29 10:12:00,
2013-05-29 06:17:00,63.9,63.5,28.97,SE,135,1.0,4.0,98,0.12,,,0.55,Rainwise IP-100,2013-05-29 10:17:00,
2013-05-29 06:22:00,64.0,63.5,28.97,ESE,112,1.0,3.0,98,0.42,,,0.58,Rainwise IP-100,2013-05-29 10:22:00,
2013-05-29 06:27:00,64.1,63.5,28.97,ESE,112,1.0,4.0,98,0.48,,,0.63,Rainwise IP-100,2013-05-29 10:27:00,
2013-05-29 06:32:00,64.1,63.5,28.97,South,180,0.0,3.0,98,0.42,,,0.65,Rainwise IP-100,2013-05-29 10:32:00,
2013-05-29 06:37:00,64.2,63.5,28.98,East,90,2.0,2.0,98,0.24,,,0.68,Rainwise IP-100,2013-05-29 10:37:00,
2013-05-29 06:42:00,64.2,63.5,28.98,NNE,22,2.0,2.0,98,0.30,,,0.70,Rainwise IP-100,2013-05-29 10:42:00,
2013-05-29 06:47:00,64.3,64.0,28.98,NNE,22,0.0,2.0,98,0.18,,,0.70,Rainwise IP-100,2013-05-29 10:47:00,
2013-05-29 06:52:00,64.3,64.0,28.98,ENE,67,1.0,2.0,98,0.00,,,0.70,Rainwise IP-100,2013-05-29 10:52:00,
2013-05-29 06:57:00,64.2,63.5,28.98,ENE,67,0.0,2.0,98,0.00,,,0.70,Rainwise IP-100,2013-05-29 10:57:00,
2013-05-29 07:02:00,64.4,64.0,28.99,ENE,67,0.0,0.0,98,0.00,,,0.70,Rainwise IP-100,2013-05-29 11:02:00,
2013-05-29 07:08:00,64.4,64.0,28.99,ENE,67,2.0,0.0,98,0.00,,,0.70,Rainwise IP-100,2013-05-29 11:08:00,
2013-05-29 07:13:00,64.4,64.0,28.99,SE,135,0.0,2.0,98,0.00,,,0.70,Rainwise IP-100,2013-05-29 11:13:00,
2013-05-29 07:18:00,64.4,64.0,28.99,South,180,2.0,2.0,98,0.00,,,0.70,Rainwise IP-100,2013-05-29 11:18:00,
2013-05-29 07:23:00,64.5,64.0,28.99,South,180,3.0,5.0,98,0.00,,,0.70,Rainwise IP-100,2013-05-29 11:23:00,
2013-05-29 07:28:00,64.6,64.0,28.99,South,180,2.0,5.0,98,0.00,,,0.70,Rainwise IP-100,2013-05-29 11:28:00,
2013-05-29 07:33:00,64.7,64.0,28.99,South,180,5.0,6.0,98,0.00,,,0.70,Rainwise IP-100,2013-05-29 11:33:00,
2013-05-29 07:38:00,64.8,64.5,28.99,South,180,2.0,7.0,98,0.00,,,0.70,Rainwise IP-100,2013-05-29 11:38:00,
2013-05-29 07:43:00,64.8,64.5,28.99,South,180,4.0,7.0,98,0.00,,,0.70,Rainwise IP-100,2013-05-29 11:43:00,
2013-05-29 07:48:00,64.8,64.5,28.99,South,180,2.0,7.0,98,0.06,,,0.71,Rainwise IP-100,2013-05-29 11:48:00,
2013-05-29 07:53:00,64.8,64.5,28.98,South,180,7.0,8.0,98,0.06,,,0.71,Rainwise IP-100,2013-05-29 11:53:00,
2013-05-29 07:58:00,64.9,64.5,28.98,South,180,6.0,11.0,98,0.00,,,0.71,Rainwise IP-100,2013-05-29 11:58:00,
2013-05-29 08:03:00,64.9,64.5,28.99,South,180,4.0,9.0,98,0.00,,,0.71,Rainwise IP-100,2013-05-29 12:03:00,
2013-05-29 08:09:00,64.8,64.5,28.99,South,180,4.0,9.0,98,0.00,,,0.71,Rainwise IP-100,2013-05-29 12:09:00,
2013-05-29 08:14:00,64.9,64.5,28.99,South,180,5.0,10.0,98,0.00,,,0.71,Rainwise IP-100,2013-05-29 12:14:00,
2013-05-29 08:19:00,65.1,64.5,28.99,South,180,6.0,9.0,98,0.00,,,0.71,Rainwise IP-100,2013-05-29 12:19:00,
2013-05-29 08:24:00,65.3,65.0,28.99,South,180,6.0,7.0,98,0.00,,,0.71,Rainwise IP-100,2013-05-29 12:24:00,
2013-05-29 08:29:00,65.4,65.0,28.99,South,180,5.0,8.0,98,0.00,,,0.71,Rainwise IP-100,2013-05-29 12:29:00,
2013-05-29 08:34:00,65.5,65.0,28.99,SSE,157,6.0,8.0,98,0.00,,,0.71,Rainwise IP-100,2013-05-29 12:34:00,
2013-05-29 08:39:00,65.7,65.0,28.99,South,180,5.0,8.0,98,0.00,,,0.71,Rainwise IP-100,2013-05-29 12:39:00,
2013-05-29 08:44:00,65.9,65.5,28.99,South,180,4.0,9.0,98,0.00,,,0.71,Rainwise IP-100,2013-05-29 12:44:00,
2013-05-29 08:49:00,66.4,66.0,28.99,South,180,4.0,8.0,99,0.00,,,0.71,Rainwise IP-100,2013-05-29 12:49:00,
2013-05-29 08:54:00,66.9,66.7,29.00,South,180,7.0,10.0,99,0.00,,,0.71,Rainwise IP-100,2013-05-29 12:54:00,
2013-05-29 08:59:00,67.4,67.0,29.00,South,180,4.0,10.0,99,0.00,,,0.71,Rainwise IP-100,2013-05-29 12:59:00,
2013-05-29 09:04:00,68.2,67.5,29.01,SSW,202,4.0,8.0,99,0.00,,,0.71,Rainwise IP-100,2013-05-29 13:04:00,
2013-05-29 09:10:00,68.8,66.3,29.02,SW,225,4.0,11.0,92,0.00,,,0.71,Rainwise IP-100,2013-05-29 13:10:00,
2013-05-29 09:15:00,68.9,66.3,29.02,WSW,247,10.0,16.0,92,0.00,,,0.71,Rainwise IP-100,2013-05-29 13:15:00,
2013-05-29 09:20:00,68.9,66.3,29.02,SSW,202,7.0,12.0,92,0.00,,,0.71,Rainwise IP-100,2013-05-29 13:20:00,
2013-05-29 09:25:00,69.3,66.7,29.03,SW,225,4.0,13.0,92,0.00,,,0.71,Rainwise IP-100,2013-05-29 13:25:00,
2013-05-29 09:30:00,69.6,66.7,29.03,SW,225,7.0,12.0,90,0.00,,,0.71,Rainwise IP-100,2013-05-29 13:30:00,
2013-05-29 09:35:00,69.8,65.5,29.03,SSW,202,10.0,13.0,86,0.00,,,0.71,Rainwise IP-100,2013-05-29 13:35:00,
2013-05-29 09:40:00,70.3,66.3,29.03,SW,225,11.0,12.0,86,0.00,,,0.71,Rainwise IP-100,2013-05-29 13:40:00,
2013-05-29 09:45:00,70.6,65.0,29.03,WSW,247,10.0,16.0,83,0.00,,,0.71,Rainwise IP-100,2013-05-29 13:45:00,
2013-05-29 09:50:00,70.9,65.0,29.04,SW,225,6.0,15.0,82,0.00,,,0.71,Rainwise IP-100,2013-05-29 13:50:00,
2013-05-29 09:55:00,71.2,65.0,29.04,SW,225,10.0,18.0,81,0.00,,,0.71,Rainwise IP-100,2013-05-29 13:55:00,
2013-05-29 10:00:00,71.7,65.0,29.04,WSW,247,8.0,14.0,80,0.00,,,0.71,Rainwise IP-100,2013-05-29 14:00:00,
2013-05-29 10:05:00,71.9,65.0,29.04,WSW,247,5.0,13.0,79,0.00,,,0.71,Rainwise IP-100,2013-05-29 14:05:00,
2013-05-29 10:11:00,72.4,66.7,29.04,SW,225,7.0,13.0,82,0.00,,,0.71,Rainwise IP-100,2013-05-29 14:11:00,
2013-05-29 10:16:00,72.9,65.0,29.05,WSW,247,12.0,14.0,76,0.00,,,0.71,Rainwise IP-100,2013-05-29 14:16:00,
2013-05-29 10:21:00,73.4,66.7,29.05,SSW,202,8.0,14.0,79,0.00,,,0.71,Rainwise IP-100,2013-05-29 14:21:00,
2013-05-29 10:26:00,73.3,65.0,29.04,WSW,247,8.0,19.0,75,0.00,,,0.71,Rainwise IP-100,2013-05-29 14:26:00,
2013-05-29 10:31:00,73.1,65.5,29.04,SW,225,3.0,14.0,77,0.00,,,0.71,Rainwise IP-100,2013-05-29 14:31:00,
2013-05-29 10:36:00,73.6,65.5,29.04,SW,225,6.0,18.0,75,0.00,,,0.71,Rainwise IP-100,2013-05-29 14:36:00,
2013-05-29 10:41:00,73.8,66.0,29.04,SSW,202,12.0,14.0,76,0.00,,,0.71,Rainwise IP-100,2013-05-29 14:41:00,
2013-05-29 10:46:00,74.3,66.7,29.04,SW,225,14.0,18.0,77,0.00,,,0.71,Rainwise IP-100,2013-05-29 14:46:00,
2013-05-29 10:51:00,73.9,66.3,29.04,WSW,247,11.0,17.0,76,0.00,,,0.71,Rainwise IP-100,2013-05-29 14:51:00,
2013-05-29 10:56:00,73.8,65.0,29.04,SW,225,6.0,18.0,74,0.00,,,0.71,Rainwise IP-100,2013-05-29 14:56:00,
2013-05-29 11:01:00,73.9,66.3,29.05,SW,225,6.0,19.0,76,0.00,,,0.71,Rainwise IP-100,2013-05-29 15:01:00,
2013-05-29 11:06:00,73.9,65.0,29.05,SW,225,9.0,16.0,73,0.00,,,0.71,Rainwise IP-100,2013-05-29 15:06:00,
2013-05-29 11:12:00,74.0,64.0,29.05,SW,225,8.0,19.0,71,0.00,,,0.71,Rainwise IP-100,2013-05-29 15:12:00,
2013-05-29 11:17:00,74.5,65.5,29.06,SW,225,7.0,16.0,72,0.00,,,0.71,Rainwise IP-100,2013-05-29 15:17:00,
2013-05-29 11:22:00,74.2,66.3,29.07,West,270,4.0,17.0,75,0.00,,,0.71,Rainwise IP-100,2013-05-29 15:22:00,
2013-05-29 11:27:00,74.3,66.0,29.07,SSW,202,5.0,14.0,74,0.00,,,0.71,Rainwise IP-100,2013-05-29 15:27:00,
2013-05-29 11:32:00,74.2,64.5,29.07,SW,225,7.0,14.0,71,0.00,,,0.71,Rainwise IP-100,2013-05-29 15:32:00,
2013-05-29 11:37:00,74.5,66.0,29.07,SSW,202,3.0,13.0,74,0.00,,,0.71,Rainwise IP-100,2013-05-29 15:37:00,
2013-05-29 11:42:00,74.3,65.0,29.07,SW,225,5.0,12.0,72,0.00,,,0.71,Rainwise IP-100,2013-05-29 15:42:00,
2013-05-29 11:47:00,74.7,66.3,29.07,SW,225,10.0,14.0,75,0.00,,,0.71,Rainwise IP-100,2013-05-29 15:47:00,
2013-05-29 11:52:00,74.1,66.3,29.06,WSW,247,10.0,13.0,76,0.00,,,0.71,Rainwise IP-100,2013-05-29 15:52:00,
2013-05-29 11:57:00,73.5,65.5,29.06,SW,225,5.0,16.0,75,0.00,,,0.71,Rainwise IP-100,2013-05-29 15:57:00,
2013-05-29 12:02:00,73.1,65.0,29.06,SW,225,9.0,13.0,76,0.00,,,0.71,Rainwise IP-100,2013-05-29 16:02:00,
2013-05-29 12:07:00,73.0,64.5,29.07,SSW,202,6.0,17.0,74,0.00,,,0.71,Rainwise IP-100,2013-05-29 16:07:00,
2013-05-29 12:13:00,72.9,64.5,29.07,South,180,6.0,13.0,74,0.00,,,0.71,Rainwise IP-100,2013-05-29 16:13:00,
2013-05-29 12:18:00,72.9,64.5,29.07,SW,225,5.0,16.0,74,0.00,,,0.71,Rainwise IP-100,2013-05-29 16:18:00,
2013-05-29 12:23:00,72.9,64.5,29.07,SW,225,4.0,13.0,74,0.00,,,0.71,Rainwise IP-100,2013-05-29 16:23:00,
2013-05-29 12:28:00,72.8,64.5,29.06,WSW,247,4.0,8.0,75,0.00,,,0.71,Rainwise IP-100,2013-05-29 16:28:00,
2013-05-29 12:33:00,72.3,64.0,29.06,SW,225,5.0,15.0,75,0.00,,,0.71,Rainwise IP-100,2013-05-29 16:33:00,
2013-05-29 12:38:00,72.3,64.5,29.06,SW,225,6.0,9.0,76,0.00,,,0.71,Rainwise IP-100,2013-05-29 16:38:00,
2013-05-29 12:43:00,72.5,63.5,29.05,WSW,247,18.0,18.0,73,0.00,,,0.71,Rainwise IP-100,2013-05-29 16:43:00,
2013-05-29 12:48:00,72.3,63.0,29.05,SSW,202,7.0,19.0,73,0.00,,,0.71,Rainwise IP-100,2013-05-29 16:48:00,
2013-05-29 12:53:00,72.2,63.5,29.05,SSW,202,6.0,14.0,74,0.00,,,0.71,Rainwise IP-100,2013-05-29 16:53:00,
2013-05-29 12:58:00,72.4,64.0,29.05,SSW,202,6.0,13.0,75,0.00,,,0.71,Rainwise IP-100,2013-05-29 16:58:00,
2013-05-29 13:03:00,72.9,65.5,29.05,SSW,202,6.0,9.0,77,0.00,,,0.71,Rainwise IP-100,2013-05-29 17:03:00,
2013-05-29 13:08:00,73.7,64.0,29.05,SW,225,6.0,11.0,71,0.00,,,0.71,Rainwise IP-100,2013-05-29 17:08:00,
2013-05-29 13:14:00,73.9,64.5,29.05,SSW,202,8.0,12.0,72,0.00,,,0.71,Rainwise IP-100,2013-05-29 17:14:00,
2013-05-29 13:19:00,74.7,65.0,29.05,SSW,202,6.0,17.0,71,0.00,,,0.71,Rainwise IP-100,2013-05-29 17:19:00,
2013-05-29 13:24:00,75.1,65.0,29.05,SSW,202,9.0,15.0,71,0.00,,,0.71,Rainwise IP-100,2013-05-29 17:24:00,
2013-05-29 13:29:00,75.1,65.0,29.05,West,270,6.0,19.0,70,0.00,,,0.71,Rainwise IP-100,2013-05-29 17:29:00,
2013-05-29 13:34:00,75.2,63.5,29.05,South,180,6.0,16.0,67,0.00,,,0.71,Rainwise IP-100,2013-05-29 17:34:00,
2013-05-29 13:39:00,75.3,64.5,29.05,SSW,202,14.0,18.0,69,0.00,,,0.71,Rainwise IP-100,2013-05-29 17:39:00,
2013-05-29 13:44:00,74.6,64.5,29.05,WSW,247,9.0,20.0,70,0.00,,,0.71,Rainwise IP-100,2013-05-29 17:44:00,
2013-05-29 13:49:00,74.3,64.5,29.05,SW,225,9.0,11.0,71,0.00,,,0.71,Rainwise IP-100,2013-05-29 17:49:00,
2013-05-29 13:54:00,73.5,64.5,29.06,SW,225,17.0,21.0,73,0.00,,,0.71,Rainwise IP-100,2013-05-29 17:54:00,
2013-05-29 13:59:00,71.4,65.0,29.05,SSW,202,9.0,25.0,80,0.00,,,0.71,Rainwise IP-100,2013-05-29 17:59:00,
2013-05-29 14:04:00,70.4,66.3,29.04,WSW,247,7.0,22.0,87,0.06,,,0.72,Rainwise IP-100,2013-05-29 18:04:00,
2013-05-29 14:09:00,70.1,66.7,29.03,SW,225,8.0,17.0,89,0.06,,,0.72,Rainwise IP-100,2013-05-29 18:09:00,
2013-05-29 14:15:00,70.9,66.3,29.03,SW,225,6.0,16.0,85,0.00,,,0.72,Rainwise IP-100,2013-05-29 18:15:00,
2013-05-29 14:20:00,72.1,66.7,29.03,SW,225,9.0,19.0,83,0.00,,,0.72,Rainwise IP-100,2013-05-29 18:20:00,
2013-05-29 14:25:00,73.3,66.3,29.03,SSW,202,9.0,15.0,78,0.00,,,0.72,Rainwise IP-100,2013-05-29 18:25:00,
2013-05-29 14:30:00,74.4,67.5,29.04,WSW,247,12.0,19.0,79,0.00,,,0.72,Rainwise IP-100,2013-05-29 18:30:00,
2013-05-29 14:35:00,75.0,67.5,29.05,SW,225,7.0,16.0,77,0.00,,,0.72,Rainwise IP-100,2013-05-29 18:35:00,
2013-05-29 14:40:00,75.1,66.7,29.05,SW,225,9.0,19.0,75,0.00,,,0.72,Rainwise IP-100,2013-05-29 18:40:00,
2013-05-29 14:45:00,74.6,65.5,29.05,SW,225,7.0,27.0,72,0.00,,,0.72,Rainwise IP-100,2013-05-29 18:45:00,
2013-05-29 14:50:00,74.6,65.5,29.05,WSW,247,15.0,21.0,72,0.00,,,0.72,Rainwise IP-100,2013-05-29 18:50:00,
2013-05-29 14:55:00,74.5,65.5,29.05,WSW,247,9.0,18.0,72,0.00,,,0.72,Rainwise IP-100,2013-05-29 18:55:00,
2013-05-29 15:00:00,74.8,65.0,29.06,SW,225,7.0,20.0,71,0.00,,,0.72,Rainwise IP-100,2013-05-29 19:00:00,
2013-05-29 15:05:00,74.9,64.5,29.06,WSW,247,6.0,26.0,69,0.00,,,0.72,Rainwise IP-100,2013-05-29 19:05:00,
2013-05-29 15:10:00,75.3,65.0,29.07,SSW,202,12.0,19.0,70,0.00,,,0.72,Rainwise IP-100,2013-05-29 19:10:00,
2013-05-29 15:16:00,75.5,65.0,29.07,SSW,202,5.0,18.0,70,0.00,,,0.72,Rainwise IP-100,2013-05-29 19:16:00,
2013-05-29 15:21:00,75.8,64.5,29.07,SW,225,7.0,21.0,68,0.00,,,0.72,Rainwise IP-100,2013-05-29 19:21:00,
2013-05-29 15:26:00,75.9,64.0,29.08,SW,225,12.0,21.0,67,0.00,,,0.72,Rainwise IP-100,2013-05-29 19:26:00,
2013-05-29 15:31:00,76.4,65.0,29.07,WSW,247,8.0,17.0,67,0.00,,,0.72,Rainwise IP-100,2013-05-29 19:31:00,
2013-05-29 15:36:00,76.3,64.5,29.08,WSW,247,12.0,26.0,67,0.00,,,0.72,Rainwise IP-100,2013-05-29 19:36:00,
2013-05-29 15:41:00,76.3,63.5,29.07,SW,225,7.0,21.0,65,0.00,,,0.72,Rainwise IP-100,2013-05-29 19:41:00,
2013-05-29 15:46:00,76.8,64.0,29.07,SW,225,12.0,24.0,64,0.00,,,0.72,Rainwise IP-100,2013-05-29 19:46:00,
2013-05-29 15:51:00,77.1,65.0,29.07,WSW,247,10.0,24.0,66,0.00,,,0.72,Rainwise IP-100,2013-05-29 19:51:00,
2013-05-29 15:56:00,77.3,64.5,29.07,SW,225,19.0,19.0,64,0.00,,,0.72,Rainwise IP-100,2013-05-29 19:56:00,
2013-05-29 16:01:00,77.7,65.0,29.07,WSW,247,14.0,22.0,65,0.00,,,0.72,Rainwise IP-100,2013-05-29 20:01:00,
2013-05-29 16:06:00,77.7,64.0,29.07,WSW,247,13.0,24.0,63,0.00,,,0.72,Rainwise IP-100,2013-05-29 20:06:00,
2013-05-29 16:11:00,78.0,64.5,29.07,SW,225,12.0,24.0,63,0.00,,,0.72,Rainwise IP-100,2013-05-29 20:11:00,
2013-05-29 16:17:00,78.4,66.0,29.07,SW,225,4.0,16.0,65,0.00,,,0.72,Rainwise IP-100,2013-05-29 20:17:00,
2013-05-29 16:22:00,78.3,64.0,29.08,SSW,202,11.0,22.0,61,0.00,,,0.72,Rainwise IP-100,2013-05-29 20:22:00,
2013-05-29 16:27:00,78.3,64.0,29.07,West,270,9.0,24.0,61,0.00,,,0.72,Rainwise IP-100,2013-05-29 20:27:00,
2013-05-29 16:32:00,78.6,65.5,29.07,West,270,7.0,22.0,64,0.00,,,0.72,Rainwise IP-100,2013-05-29 20:32:00,
2013-05-29 16:37:00,78.1,63.5,29.08,West,270,17.0,24.0,61,0.00,,,0.72,Rainwise IP-100,2013-05-29 20:37:00,
2013-05-29 16:42:00,78.2,64.5,29.07,WSW,247,14.0,21.0,62,0.00,,,0.72,Rainwise IP-100,2013-05-29 20:42:00,
2013-05-29 16:47:00,78.4,64.5,29.08,SSW,202,10.0,19.0,62,0.00,,,0.72,Rainwise IP-100,2013-05-29 20:47:00,
2013-05-29 16:52:00,78.4,64.0,29.08,West,270,10.0,20.0,61,0.00,,,0.72,Rainwise IP-100,2013-05-29 20:52:00,
2013-05-29 16:57:00,78.2,64.5,29.08,WSW,247,6.0,20.0,62,0.00,,,0.72,Rainwise IP-100,2013-05-29 20:57:00,
2013-05-29 17:02:00,78.6,64.0,29.08,SSW,202,6.0,12.0,61,0.00,,,0.72,Rainwise IP-100,2013-05-29 21:02:00,
2013-05-29 17:07:00,78.7,64.0,29.08,West,270,5.0,21.0,61,0.00,,,0.72,Rainwise IP-100,2013-05-29 21:07:00,
2013-05-29 17:12:00,78.7,63.5,29.08,WSW,247,9.0,21.0,60,0.00,,,0.72,Rainwise IP-100,2013-05-29 21:12:00,
2013-05-29 17:18:00,78.7,64.5,29.09,West,270,12.0,14.0,62,0.00,,,0.72,Rainwise IP-100,2013-05-29 21:18:00,
2013-05-29 17:23:00,78.4,62.0,29.08,WSW,247,11.0,22.0,57,0.00,,,0.72,Rainwise IP-100,2013-05-29 21:23:00,
2013-05-29 17:28:00,78.4,62.5,29.08,SW,225,10.0,19.0,58,0.00,,,0.72,Rainwise IP-100,2013-05-29 21:28:00,
2013-05-29 17:33:00,78.5,62.5,29.07,SW,225,7.0,22.0,58,0.00,,,0.72,Rainwise IP-100,2013-05-29 21:33:00,
2013-05-29 17:38:00,78.3,63.0,29.08,SW,225,12.0,19.0,59,0.00,,,0.72,Rainwise IP-100,2013-05-29 21:38:00,
2013-05-29 17:43:00,78.5,62.5,29.08,West,270,7.0,20.0,58,0.00,,,0.72,Rainwise IP-100,2013-05-29 21:43:00,
2013-05-29 17:48:00,78.7,62.0,29.07,WSW,247,12.0,14.0,57,0.00,,,0.72,Rainwise IP-100,2013-05-29 21:48:00,
2013-05-29 17:53:00,78.6,62.0,29.08,WSW,247,7.0,17.0,57,0.00,,,0.72,Rainwise IP-100,2013-05-29 21:53:00,
2013-05-29 17:58:00,78.5,63.0,29.08,SW,225,6.0,20.0,59,0.00,,,0.72,Rainwise IP-100,2013-05-29 21:58:00,
2013-05-29 18:03:00,78.5,63.0,29.08,WSW,247,7.0,16.0,59,0.00,,,0.72,Rainwise IP-100,2013-05-29 22:03:00,
2013-05-29 18:08:00,78.7,63.0,29.08,WSW,247,3.0,15.0,59,0.00,,,0.72,Rainwise IP-100,2013-05-29 22:08:00,
2013-05-29 18:13:00,78.5,62.5,29.08,SW,225,6.0,15.0,58,0.00,,,0.72,Rainwise IP-100,2013-05-29 22:13:00,
2013-05-29 18:19:00,78.7,62.5,29.08,SW,225,11.0,14.0,58,0.00,,,0.72,Rainwise IP-100,2013-05-29 22:19:00,
2013-05-29 18:24:00,78.5,63.0,29.08,WSW,247,15.0,15.0,59,0.00,,,0.72,Rainwise IP-100,2013-05-29 22:24:00,
2013-05-29 18:29:00,78.5,63.0,29.08,SW,225,9.0,12.0,59,0.00,,,0.72,Rainwise IP-100,2013-05-29 22:29:00,
2013-05-29 18:34:00,78.3,62.5,29.08,SW,225,9.0,16.0,58,0.00,,,0.72,Rainwise IP-100,2013-05-29 22:34:00,
2013-05-29 18:39:00,78.1,63.0,29.09,SW,225,7.0,14.0,60,0.00,,,0.72,Rainwise IP-100,2013-05-29 22:39:00,
2013-05-29 18:44:00,78.0,63.5,29.09,SW,225,6.0,10.0,61,0.00,,,0.72,Rainwise IP-100,2013-05-29 22:44:00,
2013-05-29 18:49:00,77.7,64.0,29.09,SW,225,11.0,11.0,62,0.00,,,0.72,Rainwise IP-100,2013-05-29 22:49:00,
2013-05-29 18:54:00,77.7,64.0,29.09,SW,225,4.0,12.0,63,0.00,,,0.72,Rainwise IP-100,2013-05-29 22:54:00,
2013-05-29 18:59:00,77.3,64.0,29.09,WSW,247,6.0,13.0,63,0.00,,,0.72,Rainwise IP-100,2013-05-29 22:59:00,
2013-05-29 19:04:00,77.2,64.5,29.08,WSW,247,8.0,14.0,64,0.00,,,0.72,Rainwise IP-100,2013-05-29 23:04:00,
2013-05-29 19:09:00,77.0,64.5,29.09,West,270,6.0,14.0,65,0.00,,,0.72,Rainwise IP-100,2013-05-29 23:09:00,
2013-05-29 19:14:00,76.9,64.5,29.09,SW,225,7.0,11.0,65,0.00,,,0.72,Rainwise IP-100,2013-05-29 23:14:00,
2013-05-29 19:20:00,76.7,64.0,29.08,SW,225,5.0,17.0,65,0.00,,,0.72,Rainwise IP-100,2013-05-29 23:20:00,
2013-05-29 19:25:00,76.6,64.0,29.08,SSW,202,4.0,12.0,65,0.00,,,0.72,Rainwise IP-100,2013-05-29 23:25:00,
2013-05-29 19:30:00,76.4,65.0,29.08,WSW,247,7.0,11.0,67,0.00,,,0.72,Rainwise IP-100,2013-05-29 23:30:00,
2013-05-29 19:35:00,76.3,64.0,29.08,SW,225,7.0,9.0,66,0.00,,,0.72,Rainwise IP-100,2013-05-29 23:35:00,
2013-05-29 19:40:00,76.1,64.5,29.08,SSW,202,4.0,9.0,68,0.00,,,0.72,Rainwise IP-100,2013-05-29 23:40:00,
2013-05-29 19:45:00,75.8,64.5,29.08,SSW,202,4.0,10.0,68,0.00,,,0.72,Rainwise IP-100,2013-05-29 23:45:00,
2013-05-29 19:50:00,75.2,64.5,29.08,South,180,7.0,10.0,69,0.00,,,0.72,Rainwise IP-100,2013-05-29 23:50:00,
2013-05-29 19:55:00,74.5,64.0,29.08,SSW,202,8.0,11.0,69,0.00,,,0.72,Rainwise IP-100,2013-05-29 23:55:00,
2013-05-29 20:00:00,73.7,63.0,29.07,SSW,202,8.0,13.0,69,0.00,,,0.72,Rainwise IP-100,2013-05-30 00:00:00,
2013-05-29 20:05:00,72.4,63.0,29.07,SSW,202,2.0,12.0,72,0.00,,,0.72,Rainwise IP-100,2013-05-30 00:05:00,
2013-05-29 20:10:00,71.9,62.5,29.07,SSW,202,5.0,12.0,72,0.00,,,0.72,Rainwise IP-100,2013-05-30 00:10:00,
2013-05-29 20:15:00,71.5,62.5,29.06,SW,225,6.0,12.0,73,0.00,,,0.72,Rainwise IP-100,2013-05-30 00:15:00,
2013-05-29 20:21:00,71.1,61.5,29.06,SW,225,5.0,12.0,73,0.00,,,0.72,Rainwise IP-100,2013-05-30 00:21:00,
2013-05-29 20:26:00,70.8,62.0,29.06,South,180,6.0,12.0,74,0.00,,,0.72,Rainwise IP-100,2013-05-30 00:26:00,
2013-05-29 20:31:00,70.5,62.0,29.06,SW,225,7.0,10.0,75,0.00,,,0.72,Rainwise IP-100,2013-05-30 00:31:00,
2013-05-29 20:36:00,70.2,62.0,29.05,SSW,202,5.0,12.0,76,0.00,,,0.72,Rainwise IP-100,2013-05-30 00:36:00,
2013-05-29 20:41:00,69.9,62.0,29.05,SSW,202,6.0,12.0,75,0.00,,,0.72,Rainwise IP-100,2013-05-30 00:41:00,
2013-05-29 20:46:00,69.7,61.5,29.05,SW,225,3.0,9.0,76,0.00,,,0.72,Rainwise IP-100,2013-05-30 00:46:00,
2013-05-29 20:51:00,69.5,61.5,29.05,WSW,247,4.0,11.0,76,0.00,,,0.72,Rainwise IP-100,2013-05-30 00:51:00,
2013-05-29 20:56:00,69.2,61.5,29.05,SW,225,4.0,9.0,77,0.00,,,0.72,Rainwise IP-100,2013-05-30 00:56:00,
2013-05-29 21:01:00,69.2,61.5,29.05,SSW,202,6.0,11.0,77,0.00,,,0.72,Rainwise IP-100,2013-05-30 01:01:00,
2013-05-29 21:06:00,69.2,61.5,29.05,SSW,202,7.0,11.0,77,0.00,,,0.72,Rainwise IP-100,2013-05-30 01:06:00,
2013-05-29 21:11:00,69.2,61.5,29.05,SW,225,9.0,11.0,76,0.00,,,0.72,Rainwise IP-100,2013-05-30 01:11:00,
2013-05-29 21:16:00,69.1,61.5,29.05,SW,225,4.0,12.0,77,0.00,,,0.72,Rainwise IP-100,2013-05-30 01:16:00,
2013-05-29 21:22:00,68.9,61.5,29.05,WSW,247,8.0,9.0,78,0.00,,,0.72,Rainwise IP-100,2013-05-30 01:22:00,
2013-05-29 21:27:00,68.8,61.5,29.05,SSW,202,6.0,11.0,78,0.00,,,0.72,Rainwise IP-100,2013-05-30 01:27:00,
2013-05-29 21:32:00,68.7,61.5,29.05,WSW,247,4.0,11.0,78,0.00,,,0.72,Rainwise IP-100,2013-05-30 01:32:00,
2013-05-29 21:37:00,68.7,61.5,29.05,SW,225,4.0,11.0,78,0.00,,,0.72,Rainwise IP-100,2013-05-30 01:37:00,
2013-05-29 21:42:00,68.7,61.5,29.05,SSW,202,4.0,12.0,78,0.00,,,0.72,Rainwise IP-100,2013-05-30 01:42:00,
2013-05-29 21:47:00,68.6,61.5,29.05,SW,225,6.0,12.0,78,0.00,,,0.72,Rainwise IP-100,2013-05-30 01:47:00,
2013-05-29 21:52:00,68.5,61.5,29.05,SW,225,8.0,11.0,79,0.00,,,0.72,Rainwise IP-100,2013-05-30 01:52:00,
2013-05-29 21:57:00,68.6,61.5,29.05,SSW,202,9.0,9.0,78,0.00,,,0.72,Rainwise IP-100,2013-05-30 01:57:00,
2013-05-29 22:02:00,68.5,61.5,29.05,SW,225,6.0,11.0,79,0.00,,,0.72,Rainwise IP-100,2013-05-30 02:02:00,
2013-05-29 22:07:00,68.6,61.5,29.05,SSW,202,6.0,12.0,79,0.00,,,0.72,Rainwise IP-100,2013-05-30 02:07:00,
2013-05-29 22:12:00,68.6,61.5,29.06,SSW,202,6.0,12.0,79,0.00,,,0.72,Rainwise IP-100,2013-05-30 02:12:00,
2013-05-29 22:17:00,68.5,61.5,29.05,SSW,202,3.0,11.0,79,0.00,,,0.72,Rainwise IP-100,2013-05-30 02:17:00,
2013-05-29 22:23:00,68.5,61.5,29.06,SW,225,4.0,10.0,79,0.00,,,0.72,Rainwise IP-100,2013-05-30 02:23:00,
2013-05-29 22:28:00,68.4,61.5,29.06,SW,225,7.0,11.0,79,0.00,,,0.72,Rainwise IP-100,2013-05-30 02:28:00,
2013-05-29 22:33:00,68.6,61.5,29.06,SSW,202,4.0,9.0,78,0.00,,,0.72,Rainwise IP-100,2013-05-30 02:33:00,
2013-05-29 22:38:00,68.6,61.5,29.06,SSW,202,4.0,9.0,78,0.00,,,0.72,Rainwise IP-100,2013-05-30 02:38:00,
2013-05-29 22:43:00,68.4,62.0,29.07,SW,225,6.0,9.0,80,0.00,,,0.72,Rainwise IP-100,2013-05-30 02:43:00,
2013-05-29 22:48:00,68.3,62.0,29.07,SSW,202,4.0,9.0,80,0.00,,,0.72,Rainwise IP-100,2013-05-30 02:48:00,
2013-05-29 22:53:00,68.4,61.5,29.07,WSW,247,4.0,7.0,79,0.00,,,0.72,Rainwise IP-100,2013-05-30 02:53:00,
2013-05-29 22:58:00,68.4,62.0,29.07,West,270,4.0,8.0,80,0.00,,,0.72,Rainwise IP-100,2013-05-30 02:58:00,
2013-05-29 23:03:00,68.6,61.5,29.07,SSW,202,2.0,7.0,79,0.00,,,0.72,Rainwise IP-100,2013-05-30 03:03:00,
2013-05-29 23:08:00,68.6,61.5,29.07,WSW,247,5.0,8.0,79,0.00,,,0.72,Rainwise IP-100,2013-05-30 03:08:00,
2013-05-29 23:13:00,68.5,62.0,29.08,SW,225,2.0,7.0,80,0.00,,,0.72,Rainwise IP-100,2013-05-30 03:13:00,
2013-05-29 23:18:00,68.4,62.0,29.08,SW,225,6.0,7.0,80,0.00,,,0.72,Rainwise IP-100,2013-05-30 03:18:00,
2013-05-29 23:24:00,68.4,62.0,29.08,SW,225,2.0,8.0,80,0.00,,,0.72,Rainwise IP-100,2013-05-30 03:24:00,
2013-05-29 23:29:00,68.2,62.0,29.08,SW,225,2.0,10.0,81,0.00,,,0.72,Rainwise IP-100,2013-05-30 03:29:00,
2013-05-29 23:34:00,68.2,62.0,29.08,SW,225,5.0,8.0,81,0.00,,,0.72,Rainwise IP-100,2013-05-30 03:34:00,
2013-05-29 23:39:00,68.2,61.5,29.08,SW,225,2.0,7.0,80,0.00,,,0.72,Rainwise IP-100,2013-05-30 03:39:00,
2013-05-29 23:44:00,68.3,62.0,29.09,SW,225,6.0,8.0,80,0.00,,,0.72,Rainwise IP-100,2013-05-30 03:44:00,
2013-05-29 23:49:00,68.3,62.0,29.08,SW,225,4.0,7.0,80,0.00,,,0.72,Rainwise IP-100,2013-05-30 03:49:00,
2013-05-29 23:54:00,68.2,62.0,29.09,SSW,202,2.0,6.0,81,0.00,,,0.72,Rainwise IP-100,2013-05-30 03:54:00,
2013-05-29 23:59:00,67.9,62.5,29.09,SSW,202,4.0,6.0,82,0.00,,,0.72,Rainwise IP-100,2013-05-30 03:59:00,